ADDS METAR Data INFO
IDs: Format: Raw Decoded Include TAF

Data at: 0041 UTC 23 Oct 2017

KBIL 222353Z 27022G29KT 10SM FEW080 SCT110 BKN200 15/03 A2989 RMK AO2 PK WND 27031/2341 SLP114 VIRGA VCSH SE-SW 60000 T01500033 10206 20144 51024
KBIL 222253Z 27022G31KT 10SM FEW070 BKN090 BKN110 15/04 A2988 RMK AO2 PK WND 27032/2208 RAE04 SLP110 VIRGA ALQDS VCSH E-SW P0000 T01500039
KBIL 222153Z 28018G26KT 10SM -RA BKN075 BKN090 16/04 A2985 RMK AO2 PK WND 30033/2140 RAB07E26B51 SLP102 P0000 T01560039
KBIL 222053Z 24025G34KT 10SM BKN090 BKN110 19/01 A2981 RMK AO2 PK WND 26039/2024 SLP087 VIRGA W-N-E T01890006 55010
KBIL 221953Z 25023G37KT 10SM FEW095 SCT200 19/00 A2980 RMK AO2 PK WND 24042/1925 SLP080 ACSL SE T01940000
KBIL 221853Z 24023G39KT 10SM FEW100 BKN200 19/01 A2981 RMK AO2 PK WND 25039/1847 SLP084 ACSL SE-W T01940006
KBIL 221753Z 23018G31KT 10SM SCT100 BKN200 17/M01 A2985 RMK AO2 PK WND 23031/1749 SLP099 ACSL SE T01671011 10167 20094 58001
KBIL 221653Z 23010KT 10SM SCT085 BKN200 14/M01 A2985 RMK AO2 SLP105 ACSL SE T01391011
KBIL 221553Z 25015KT 10SM BKN080 BKN200 12/M02 A2986 RMK AO2 SLP109 ACSL SE-W T01221022
KBIL 221453Z 25016KT 10SM SCT120 BKN200 11/M03 A2985 RMK AO2 SLP110 T01061028 53003
KBIL 221353Z 23013G21KT 10SM SCT150 BKN200 10/M03 A2984 RMK AO2 SLP105 T01001033
KBIL 221253Z 25015KT 10SM FEW150 BKN200 10/M03 A2982 RMK AO2 SLP096 T01001033
KBIL 221153Z 25014KT 10SM SCT110 BKN170 09/M03 A2984 RMK AO2 SLP101 T00941033 10094 20044 58005
KBIL 221053Z 25014KT 10SM FEW140 SCT200 08/M04 A2984 RMK AO2 SLP103 T00831039
KBIL 220953Z 24013KT 10SM FEW085 08/M04 A2985 RMK AO2 SLP106 T00781044
KBIL 220853Z 23009KT 10SM FEW095 04/M06 A2985 RMK AO2 SLP112 T00441056 56020
KBIL 220753Z 25007KT 10SM FEW130 06/M07 A2988 RMK AO2 SLP119 T00561067
KBIL 220653Z 24009KT 10SM FEW240 06/M07 A2989 RMK AO2 SLP123 T00611067 401280050
KBIL 220553Z 24008KT 10SM CLR 06/M08 A2992 RMK AO2 SLP133 T00611078 10100 20050 55002
KBIL 220453Z 23008KT 10SM CLR 06/M08 A2991 RMK AO2 SLP132 T00561078
KBIL 220353Z 24008KT 10SM CLR 06/M08 A2991 RMK AO2 SLP133 T00611083
KBIL 220253Z 22006KT 10SM CLR 06/M08 A2992 RMK AO2 SLP141 T00611078 51004
KBIL 220153Z 26009KT 10SM CLR 07/M08 A2992 RMK AO2 SLP141 T00721078
KBIL 220053Z 26014G20KT 10SM FEW090 FEW220 09/M08 A2992 RMK AO2 SLP136 T00941083
KBIL 212353Z 28013KT 10SM FEW090 FEW250 10/M08 A2991 RMK AO2 PK WND 28026/2300 SLP132 T01001083 10128 20100 51006
KBIL 212253Z 29017G23KT 10SM FEW090 12/M08 A2991 RMK AO2 PK WND 28031/2206 SLP130 T01171083
KBIL 212153Z 30021G27KT 10SM FEW090 12/M08 A2990 RMK AO2 PK WND 28037/2108 SLP127 T01171078
KBIL 212053Z 29023G29KT 10SM FEW090 12/M09 A2989 RMK AO2 PK WND 28033/2013 SLP122 T01221089 58002
KBIL 211953Z 29020G28KT 10SM SCT080 12/M08 A2990 RMK AO2 PK WND 27034/1938 SLP124 T01221083
KBIL 211853Z 28026G35KT 10SM FEW080 12/M09 A2990 RMK AO2 PK WND 26038/1832 SLP126 T01171089
KBIL 211753Z 28024G33KT 10SM FEW090 FEW180 12/M07 A2990 RMK AO2 PK WND 27036/1705 SLP124 T01171072 10117 20061 51008
KBIL 211653Z 29026G34KT 10SM FEW090 FEW150 11/M07 A2990 RMK AO2 PK WND 29036/1635 SLP127 ACSL NE-SE NW T01061067
KBIL 211553Z 28017G26KT 10SM FEW090 FEW150 09/M06 A2989 RMK AO2 PK WND 28026/1553 SLP124 ACSL NE-S T00941061
KBIL 211453Z 27018G25KT 10SM FEW090 FEW150 07/M06 A2987 RMK AO2 PK WND 28026/1356 SLP121 ACSL NE-S T00721061 53027
KBIL 211353Z 28018KT 10SM FEW080 FEW120 06/M07 A2983 RMK AO2 PK WND 27033/1311 SLP110 T00611067
KBIL 211253Z 27019G29KT 10SM FEW100 FEW180 06/M07 A2981 RMK AO2 PK WND 27036/1157 SLP099 T00611067